Terminal Aerodrome Forecast
Issued by NWS

Home | Current Version | Previous Version | Text Only | Print | Product List | Glossary On
Versions: 1 2 3 4 5 6 7 8 9 10 11 12
572
FTUS43 KMQT 221137
TAFIWD
TAF
KIWD 221137Z 2212/2312 23007KT P6SM BKN030
     FM221400 26005KT P6SM BKN060
     FM221700 24005KT P6SM BKN140
     FM230500 24006KT P6SM SCT110=

USA.gov is the U.S. government's official web portal to all federal, state and local government web resources and services.